Time;durP1;ratioP1;P1;durP2;ratioP2;P2;SDS_P1;SDS_P2;PMS_P1;PMS_P2;Temp;Humidity;BMP_temperature;BMP_pressure;BME280_temperature;BME280_humidity;BME280_pressure;Samples;Min_cycle;Max_cycle;Signal;HPM_P1;HPM_P2
2023/01/13 00:00:16;;;;;;;13.50;5.50;;;;;;;-3.92;100.00;98390.72;106989;1275;26665;-69
2023/01/13 00:02:43;;;;;;;12.30;5.10;;;;;;;-3.91;100.00;98353.67;107022;1275;24302;-70
2023/01/13 00:05:10;;;;;;;10.50;4.40;;;;;;;-3.91;100.00;98358.75;106997;1275;22551;-68
2023/01/13 00:07:42;;;;;;;10.10;4.60;;;;;;;-3.90;100.00;98360.95;106829;1275;25456;-69
2023/01/13 00:10:10;;;;;;;9.20;4.00;;;;;;;-3.88;100.00;98352.71;106172;1275;1003366;-69
2023/01/13 00:12:41;;;;;;;6.80;3.70;;;;;;;-3.87;100.00;98363.02;107010;1275;25246;-69
2023/01/13 00:15:09;;;;;;;11.00;4.00;;;;;;;-3.87;100.00;98364.60;107003;1275;22750;-68
2023/01/13 00:17:37;;;;;;;12.90;4.70;;;;;;;-3.87;100.00;98367.80;106254;1275;1003182;-66
2023/01/13 00:20:06;;;;;;;10.80;4.00;;;;;;;-3.86;100.00;98371.21;106931;1275;22526;-69
2023/01/13 00:22:34;;;;;;;12.90;4.90;;;;;;;-3.86;100.00;98372.78;106176;1275;1003119;-69
2023/01/13 00:25:03;;;;;;;11.00;5.00;;;;;;;-3.85;100.00;98377.31;107008;1275;25284;-68
2023/01/13 00:27:30;;;;;;;14.70;6.30;;;;;;;-3.84;100.00;98377.34;107007;1275;25471;-69
2023/01/13 00:29:58;;;;;;;10.10;4.70;;;;;;;-3.82;100.00;98379.31;106976;1275;22764;-68
2023/01/13 00:32:27;;;;;;;11.20;4.60;;;;;;;-3.81;100.00;98387.94;106941;1275;25334;-67
2023/01/13 00:34:55;;;;;;;9.20;4.10;;;;;;;-3.82;100.00;98399.59;106157;1275;1003230;-68
2023/01/13 00:37:22;;;;;;;10.10;4.30;;;;;;;-3.83;100.00;98409.65;106201;1275;1002916;-68
2023/01/13 00:39:51;;;;;;;12.20;4.20;;;;;;;-3.83;100.00;98418.99;106952;1275;25306;-69
2023/01/13 00:45:05;;;;;;;11.60;4.60;;;;;;;-3.80;100.00;98438.90;106970;1275;22666;-69
2023/01/13 00:47:33;;;;;;;13.20;6.00;;;;;;;-3.79;100.00;98447.45;106281;1275;1003300;-68
2023/01/13 00:50:00;;;;;;;16.90;5.40;;;;;;;-3.78;100.00;98455.98;106958;1275;22529;-69
2023/01/13 00:52:27;;;;;;;16.20;5.40;;;;;;;-3.76;100.00;98461.11;106856;1275;22530;-72
2023/01/13 00:54:55;;;;;;;11.10;4.80;;;;;;;-3.75;100.00;98470.20;106942;1275;22771;-68
2023/01/13 00:57:24;;;;;;;11.20;4.70;;;;;;;-3.74;100.00;98482.46;106234;1275;1003669;-69
2023/01/13 00:59:52;;;;;;;9.20;4.50;;;;;;;-3.74;100.00;98482.61;106196;1275;1003108;-68
2023/01/13 01:02:19;;;;;;;10.70;4.90;;;;;;;-3.74;100.00;98497.90;106878;1275;22528;-69
2023/01/13 01:04:46;;;;;;;11.10;4.50;;;;;;;-3.73;100.00;98501.92;106245;1275;1002956;-68
2023/01/13 01:07:14;;;;;;;11.00;4.40;;;;;;;-3.73;100.00;98507.06;106977;1273;24423;-69
2023/01/13 01:09:41;;;;;;;10.70;4.40;;;;;;;-3.72;100.00;98522.44;106192;1257;1003673;-68
2023/01/13 01:12:09;;;;;;;12.70;5.40;;;;;;;-3.69;100.00;98541.27;106997;1275;24256;-68
2023/01/13 01:14:36;;;;;;;9.50;4.60;;;;;;;-3.68;100.00;98545.77;106952;1275;22531;-69
2023/01/13 01:17:03;;;;;;;11.30;4.40;;;;;;;-3.67;100.00;98546.54;106912;1275;23869;-68
2023/01/13 01:19:31;;;;;;;12.00;4.20;;;;;;;-3.65;100.00;98568.44;106904;1275;22524;-67
2023/01/13 01:21:58;;;;;;;11.80;5.00;;;;;;;-3.65;100.00;98588.66;106245;1275;1002726;-68
2023/01/13 01:24:26;;;;;;;14.20;5.00;;;;;;;-3.66;100.00;98605.97;107007;1275;22606;-68
2023/01/13 01:26:53;;;;;;;11.90;5.00;;;;;;;-3.67;100.00;98628.77;106241;1275;1003310;-70
2023/01/13 01:29:20;;;;;;;10.10;4.30;;;;;;;-3.69;100.00;98660.43;106980;1275;24040;-68
2023/01/13 01:31:48;;;;;;;7.80;3.90;;;;;;;-3.69;100.00;98692.86;106265;1275;1003238;-68
2023/01/13 01:34:15;;;;;;;11.80;5.40;;;;;;;-3.69;100.00;98719.82;106909;1275;23342;-66
2023/01/13 01:36:42;;;;;;;12.20;5.40;;;;;;;-3.67;100.00;98756.50;106228;1275;1003835;-68
2023/01/13 01:39:10;;;;;;;12.50;4.90;;;;;;;-3.67;100.00;98794.15;107044;1275;22915;-68
2023/01/13 01:41:37;;;;;;;13.20;4.90;;;;;;;-3.67;100.00;98829.90;106239;1275;1016115;-69
2023/01/13 01:44:27;;;;;;;14.30;5.30;;;;;;;-3.67;100.00;98863.41;106982;1275;22767;-69
2023/01/13 01:46:54;;;;;;;16.00;4.70;;;;;;;-3.66;100.00;98894.52;106839;1275;25419;-69
2023/01/13 01:49:25;;;;;;;11.60;3.90;;;;;;;-3.66;100.00;98944.39;106224;1275;1003751;-68
2023/01/13 01:52:10;;;;;;;11.10;4.40;;;;;;;-3.67;100.00;98982.86;108969;1275;25323;-65
2023/01/13 01:54:38;;;;;;;11.80;4.20;;;;;;;-3.68;100.00;99012.86;108272;1275;25773;-68
2023/01/13 01:57:07;;;;;;;7.70;3.80;;;;;;;-3.68;100.00;99047.89;107099;1275;25966;-68
2023/01/13 01:59:34;;;;;;;9.00;4.30;;;;;;;-3.66;100.00;99081.74;107049;1276;22668;-68
2023/01/13 02:02:05;;;;;;;13.20;4.40;;;;;;;-3.63;100.00;99108.32;106959;1275;22476;-68
2023/01/13 02:04:35;;;;;;;12.80;4.60;;;;;;;-3.61;100.00;99118.23;106890;1275;22857;-69
2023/01/13 02:07:02;;;;;;;13.40;5.70;;;;;;;-3.59;100.00;99126.89;107054;1275;22521;-69
2023/01/13 02:09:29;;;;;;;18.70;6.20;;;;;;;-3.57;100.00;99155.54;107013;1275;23874;-67
2023/01/13 02:14:43;;;;;;;9.80;4.40;;;;;;;-3.56;100.00;99157.37;106890;1275;22530;-68
2023/01/13 02:17:19;;;;;;;8.00;4.00;;;;;;;-3.56;100.00;99173.94;106227;1275;1003150;-67
2023/01/13 02:19:50;;;;;;;8.60;3.80;;;;;;;-3.57;100.00;99204.65;106187;1275;1003339;-69
2023/01/13 02:22:33;;;;;;;14.30;4.40;;;;;;;-3.59;100.00;99239.52;106239;1275;1002944;-69
2023/01/13 02:25:29;;;;;;;13.40;3.70;;;;;;;-3.61;100.00;99277.86;106176;1276;1003030;-70
2023/01/13 02:28:29;;;;;;;10.30;3.50;;;;;;;-3.63;100.00;99324.81;107018;1276;22468;-68
2023/01/13 02:34:15;;;;;;;12.40;4.10;;;;;;;-3.62;100.00;99412.17;106987;1275;24195;-70
2023/01/13 02:37:11;;;;;;;14.40;5.50;;;;;;;-3.60;100.00;99453.83;106977;1275;22523;-68
2023/01/13 02:39:49;;;;;;;11.80;4.60;;;;;;;-3.59;100.00;99481.92;107007;1275;24458;-68
2023/01/13 02:45:19;;;;;;;12.90;4.80;;;;;;;-3.57;100.00;99571.84;107016;1275;25348;-68
2023/01/13 02:47:48;;;;;;;13.60;4.70;;;;;;;-3.58;100.00;99604.85;107036;1275;22534;-68
2023/01/13 02:50:18;;;;;;;14.10;4.00;;;;;;;-3.59;100.00;99637.52;106655;1275;23847;-67
2023/01/13 02:52:54;;;;;;;14.80;5.40;;;;;;;-3.61;100.00;99672.49;106905;1275;22547;-68
2023/01/13 02:55:30;;;;;;;10.80;4.40;;;;;;;-3.62;100.00;99693.86;106311;1275;1016455;-68
2023/01/13 02:57:58;;;;;;;12.90;4.80;;;;;;;-3.63;100.00;99708.90;106191;1275;1003462;-67
2023/01/13 03:00:25;;;;;;;12.80;4.40;;;;;;;-3.63;100.00;99751.89;106893;1275;22564;-68
2023/01/13 03:02:53;;;;;;;16.20;5.70;;;;;;;-3.62;100.00;99778.09;106165;1275;1003833;-69
2023/01/13 03:05:20;;;;;;;12.70;6.00;;;;;;;-3.61;100.00;99789.48;106935;1275;22516;-69
2023/01/13 03:08:14;;;;;;;19.80;7.50;;;;;;;-3.62;100.00;99807.69;106258;1275;1003355;-69
2023/01/13 03:10:56;;;;;;;20.90;9.40;;;;;;;-3.63;100.00;99814.80;106205;1275;1002554;-67
2023/01/13 03:13:35;;;;;;;17.70;7.70;;;;;;;-3.63;100.00;99833.11;106971;1275;24198;-69
2023/01/13 03:16:34;;;;;;;12.80;5.80;;;;;;;-3.64;100.00;99844.96;106289;1275;1003558;-69
2023/01/13 03:19:07;;;;;;;12.10;5.00;;;;;;;-3.65;100.00;99841.50;106224;1275;1003068;-70
2023/01/13 03:21:37;;;;;;;13.70;4.90;;;;;;;-3.65;100.00;99847.81;107104;1275;22556;-68
2023/01/13 03:24:17;;;;;;;11.90;4.60;;;;;;;-3.65;100.00;99849.05;107024;1275;22659;-72
2023/01/13 03:26:51;;;;;;;12.20;4.60;;;;;;;-3.64;100.00;99851.13;106151;1275;1003657;-69
2023/01/13 03:29:27;;;;;;;16.60;5.10;;;;;;;-3.64;100.00;99847.08;107147;1275;22539;-68
2023/01/13 03:32:04;;;;;;;16.30;4.10;;;;;;;-3.62;100.00;99842.75;106984;1275;22536;-68
2023/01/13 03:34:43;;;;;;;13.30;5.30;;;;;;;-3.61;100.00;99835.84;106975;1270;22550;-69
2023/01/13 03:37:10;;;;;;;16.80;4.70;;;;;;;-3.61;100.00;99822.06;106957;1275;22528;-69
2023/01/13 03:39:38;;;;;;;16.50;4.70;;;;;;;-3.60;100.00;99821.53;106229;1275;1002897;-66
2023/01/13 03:42:14;;;;;;;11.40;4.20;;;;;;;-3.61;100.00;99814.70;106845;1275;22530;-69
2023/01/13 03:44:46;;;;;;;10.30;4.00;;;;;;;-3.62;100.00;99808.23;106262;1275;1003058;-69
2023/01/13 03:47:37;;;;;;;20.10;5.60;;;;;;;-3.64;100.00;99857.13;106243;1275;1003075;-68
2023/01/13 03:50:11;;;;;;;10.50;4.70;;;;;;;-3.66;100.00;99834.50;106996;1275;25325;-68
2023/01/13 03:52:44;;;;;;;14.20;5.00;;;;;;;-3.66;100.00;99821.65;106977;1275;22528;-67
2023/01/13 03:55:13;;;;;;;20.80;5.90;;;;;;;-3.66;100.00;99826.24;106153;1275;1002915;-66
2023/01/13 03:57:43;;;;;;;15.80;6.30;;;;;;;-3.65;100.00;99806.27;107013;1275;25580;-68
2023/01/13 04:00:11;;;;;;;26.00;6.00;;;;;;;-3.64;100.00;99795.98;107027;1254;22763;-68
2023/01/13 04:02:53;;;;;;;10.60;4.50;;;;;;;-3.64;100.00;99786.68;106895;1275;25457;-69
2023/01/13 04:05:20;;;;;;;10.10;4.60;;;;;;;-3.65;100.00;99766.11;106948;1275;24235;-69
2023/01/13 04:08:19;;;;;;;9.40;4.20;;;;;;;-3.65;100.00;99765.38;106175;1275;1003442;-69
2023/01/13 04:10:52;;;;;;;11.80;4.10;;;;;;;-3.64;100.00;99751.75;106274;1275;1003501;-68
2023/01/13 04:13:21;;;;;;;15.60;5.10;;;;;;;-3.63;100.00;99755.38;106348;1275;1003099;-68
2023/01/13 04:15:49;;;;;;;12.70;4.70;;;;;;;-3.62;100.00;99744.09;106242;1275;1003283;-70
2023/01/13 04:18:24;;;;;;;12.00;5.10;;;;;;;-3.64;100.00;99733.75;106996;1275;22541;-67
2023/01/13 04:20:52;;;;;;;13.70;5.10;;;;;;;-3.63;100.00;99727.23;106949;1275;26649;-67
2023/01/13 04:23:20;;;;;;;16.70;6.40;;;;;;;-3.63;100.00;99716.64;106918;1275;22537;-68
2023/01/13 04:25:47;;;;;;;17.20;6.90;;;;;;;-3.63;100.00;99701.67;106278;1275;1002987;-70
2023/01/13 04:28:15;;;;;;;18.80;6.90;;;;;;;-3.63;100.00;99688.27;109790;1275;25897;-67
2023/01/13 04:30:42;;;;;;;20.40;6.70;;;;;;;-3.62;100.00;99679.75;107794;1275;22523;-67
2023/01/13 04:33:10;;;;;;;10.40;4.90;;;;;;;-3.60;100.00;99673.84;106997;1275;25541;-69
2023/01/13 04:35:38;;;;;;;9.10;4.80;;;;;;;-3.59;100.00;99663.05;106860;1275;25828;-69
2023/01/13 04:38:11;;;;;;;16.50;5.10;;;;;;;-3.59;100.00;99657.77;106301;1275;1002986;-67
2023/01/13 04:40:39;;;;;;;13.00;4.70;;;;;;;-3.61;100.00;99652.98;106099;1275;1004222;-68
2023/01/13 04:43:06;;;;;;;13.70;4.30;;;;;;;-3.63;100.00;99649.84;107066;1275;25504;-67
2023/01/13 04:45:34;;;;;;;11.00;4.90;;;;;;;-3.62;100.00;99647.19;107004;1275;22547;-69
2023/01/13 04:48:01;;;;;;;15.50;5.00;;;;;;;-3.63;100.00;99643.14;106854;1275;24234;-69
2023/01/13 04:50:28;;;;;;;17.40;5.60;;;;;;;-3.63;100.00;99641.23;106110;1275;1003070;-68
2023/01/13 04:52:55;;;;;;;13.50;4.40;;;;;;;-3.63;100.00;99640.02;106935;1275;22528;-68
2023/01/13 04:55:23;;;;;;;12.80;4.70;;;;;;;-3.63;100.00;99631.72;106184;1275;1003003;-69
2023/01/13 04:57:51;;;;;;;12.20;4.40;;;;;;;-3.63;100.00;99630.31;107049;1275;24214;-69
2023/01/13 05:00:19;;;;;;;18.50;4.60;;;;;;;-3.65;100.00;99623.54;106993;1275;25294;-68
2023/01/13 05:02:50;;;;;;;17.80;4.30;;;;;;;-3.66;100.00;99631.54;107055;1275;24318;-67
2023/01/13 05:05:18;;;;;;;13.50;4.50;;;;;;;-3.66;100.00;99631.35;106270;1275;1003548;-72
2023/01/13 05:07:46;;;;;;;17.50;5.20;;;;;;;-3.65;100.00;99639.41;106994;1275;22713;-67
2023/01/13 05:10:13;;;;;;;20.80;5.70;;;;;;;-3.65;100.00;99647.17;106987;1275;24320;-68
2023/01/13 05:18:12;;;;;;;18.30;6.30;;;;;;;-3.65;100.00;99614.41;107008;1275;22632;-69
2023/01/13 05:20:40;;;;;;;13.10;4.70;;;;;;;-3.66;100.00;99613.39;106226;1275;1002552;-68
2023/01/13 05:25:53;;;;;;;13.40;4.10;;;;;;;-3.66;100.00;99606.20;106968;1275;22523;-68
2023/01/13 05:28:20;;;;;;;16.10;5.60;;;;;;;-3.67;100.00;99599.92;106974;1275;22523;-67
2023/01/13 05:30:51;;;;;;;18.10;6.10;;;;;;;-3.67;100.00;99584.40;106976;1275;22527;-68
2023/01/13 05:33:19;;;;;;;15.70;5.40;;;;;;;-3.66;100.00;99578.16;107003;1275;22523;-68
2023/01/13 05:35:47;;;;;;;14.90;5.20;;;;;;;-3.65;100.00;99573.55;106967;1275;22586;-68
2023/01/13 05:38:15;;;;;;;14.80;4.60;;;;;;;-3.64;100.00;99580.02;106185;1275;1003103;-69
2023/01/13 05:43:39;;;;;;;17.80;4.30;;;;;;;-3.64;100.00;99572.60;105750;1275;1002906;-69
2023/01/13 05:46:08;;;;;;;18.90;5.10;;;;;;;-3.65;100.00;99572.81;107003;1275;24326;-73
2023/01/13 05:48:37;;;;;;;14.50;4.90;;;;;;;-3.66;100.00;99571.10;107060;1275;22707;-69
2023/01/13 05:51:06;;;;;;;15.10;4.80;;;;;;;-3.65;100.00;99566.31;106929;1275;25357;-70
2023/01/13 05:53:33;;;;;;;15.20;4.60;;;;;;;-3.64;100.00;99555.33;107087;1275;22535;-70
2023/01/13 05:56:04;;;;;;;13.00;4.30;;;;;;;-3.62;100.00;99550.80;106255;1275;1003823;-68
2023/01/13 05:58:32;;;;;;;18.30;5.10;;;;;;;-3.60;100.00;99540.80;106974;1275;22530;-68
2023/01/13 06:01:01;;;;;;;11.30;4.70;;;;;;;-3.58;100.00;99537.18;106244;1275;1002418;-70
2023/01/13 06:03:28;;;;;;;16.30;4.80;;;;;;;-3.57;100.00;99535.73;106952;1275;25419;-68
2023/01/13 06:05:58;;;;;;;14.60;4.40;;;;;;;-3.56;100.00;99534.08;106899;1275;22624;-68
2023/01/13 06:08:25;;;;;;;15.20;5.00;;;;;;;-3.55;100.00;99524.68;106172;1275;1003728;-67
2023/01/13 06:10:53;;;;;;;16.80;4.50;;;;;;;-3.54;100.00;99524.61;106894;1275;24285;-67
2023/01/13 06:13:20;;;;;;;10.90;4.50;;;;;;;-3.54;100.00;99517.39;106919;1275;23874;-70
2023/01/13 06:15:47;;;;;;;19.00;4.60;;;;;;;-3.53;100.00;99518.69;106954;1275;22520;-69
2023/01/13 06:18:14;;;;;;;11.20;4.60;;;;;;;-3.51;100.00;99508.56;107003;1275;25961;-68
2023/01/13 06:20:43;;;;;;;12.50;4.80;;;;;;;-3.49;100.00;99501.55;106182;1275;1003057;-69
2023/01/13 06:23:10;;;;;;;19.90;5.10;;;;;;;-3.46;100.00;99500.15;106933;1275;22582;-69
2023/01/13 06:25:41;;;;;;;17.50;5.70;;;;;;;-3.45;100.00;99493.55;106905;1273;24666;-68
2023/01/13 06:28:11;;;;;;;13.80;5.20;;;;;;;-3.42;100.00;99491.80;106002;1275;1002632;-69
2023/01/13 06:30:54;;;;;;;11.30;4.70;;;;;;;-3.38;100.00;99487.16;107001;1273;22604;-69
2023/01/13 06:33:25;;;;;;;18.20;6.10;;;;;;;-3.35;100.00;99480.11;106341;1275;1003411;-70
2023/01/13 06:35:57;;;;;;;18.10;4.90;;;;;;;-3.32;100.00;99446.08;106879;1275;22644;-68
2023/01/13 06:38:24;;;;;;;15.30;5.40;;;;;;;-3.28;100.00;99428.54;106186;1276;1003504;-70
2023/01/13 06:40:52;;;;;;;17.80;6.40;;;;;;;-3.24;100.00;99419.45;106970;1276;22569;-70
2023/01/13 06:43:20;;;;;;;16.20;5.60;;;;;;;-3.21;100.00;99412.02;106863;1276;22556;-69
2023/01/13 06:45:54;;;;;;;15.60;6.00;;;;;;;-3.17;100.00;99402.61;106063;1276;1002388;-69
2023/01/13 06:48:33;;;;;;;25.10;9.60;;;;;;;-3.14;100.00;99391.11;107335;1275;25437;-67
2023/01/13 06:51:03;;;;;;;22.40;6.60;;;;;;;-3.13;100.00;99378.17;107047;1275;22526;-67
2023/01/13 06:53:30;;;;;;;17.40;6.20;;;;;;;-3.13;100.00;99373.41;106849;1276;24245;-68
2023/01/13 06:55:58;;;;;;;18.50;5.80;;;;;;;-3.12;100.00;99369.13;106586;1276;24256;-70
2023/01/13 06:58:25;;;;;;;16.40;5.70;;;;;;;-3.12;100.00;99362.21;107725;1276;22521;-70
2023/01/13 07:00:52;;;;;;;16.60;5.30;;;;;;;-3.11;100.00;99357.23;107416;1276;1003500;-66
2023/01/13 07:03:20;;;;;;;14.60;4.80;;;;;;;-3.10;100.00;99354.55;109497;1276;24256;-71
2023/01/13 07:05:52;;;;;;;18.00;5.40;;;;;;;-3.07;100.00;99351.67;106927;1275;22522;-68
2023/01/13 07:08:20;;;;;;;14.50;5.60;;;;;;;-3.02;100.00;99347.69;106981;1275;22546;-68
2023/01/13 07:10:47;;;;;;;18.80;5.90;;;;;;;-2.97;100.00;99344.69;106985;1272;22539;-68
2023/01/13 07:16:04;;;;;;;18.20;5.20;;;;;;;-2.85;100.00;99328.05;106902;1275;22654;-66
2023/01/13 07:18:32;;;;;;;15.90;4.80;;;;;;;-2.84;100.00;99333.39;106798;1276;25354;-66
2023/01/13 07:21:01;;;;;;;13.90;5.60;;;;;;;-2.82;100.00;99334.70;106758;1275;26031;-71
2023/01/13 07:23:34;;;;;;;13.10;5.60;;;;;;;-2.81;100.00;99332.50;106980;1276;22614;-69
2023/01/13 07:26:01;;;;;;;14.80;6.80;;;;;;;-2.80;100.00;99325.91;106938;1276;23858;-70
2023/01/13 07:28:29;;;;;;;24.40;7.70;;;;;;;-2.80;100.00;99333.86;106878;1276;22530;-68
2023/01/13 07:30:56;;;;;;;16.60;5.90;;;;;;;-2.78;100.00;99337.27;106930;1276;22539;-69
2023/01/13 07:33:24;;;;;;;16.40;5.90;;;;;;;-2.77;100.00;99330.52;106904;1276;22534;-69
2023/01/13 07:35:56;;;;;;;23.40;6.90;;;;;;;-2.75;100.00;99328.77;106108;1275;1003084;-69
2023/01/13 07:38:24;;;;;;;18.10;4.90;;;;;;;-2.71;100.00;99321.42;106189;1276;1003298;-66
2023/01/13 07:40:52;;;;;;;18.00;5.70;;;;;;;-2.68;100.00;99317.88;106829;1277;23128;-68
2023/01/13 07:43:31;;;;;;;14.50;5.50;;;;;;;-2.65;100.00;99312.70;106240;1275;1003142;-67
2023/01/13 07:46:03;;;;;;;15.50;6.20;;;;;;;-2.59;100.00;99303.00;106803;1275;25612;-67
2023/01/13 07:48:32;;;;;;;15.70;5.60;;;;;;;-2.55;100.00;99304.83;106824;1276;25265;-68
2023/01/13 07:51:03;;;;;;;14.00;6.00;;;;;;;-2.51;100.00;99304.88;106237;1276;1003071;-68
2023/01/13 07:53:31;;;;;;;30.70;10.10;;;;;;;-2.47;100.00;99294.00;107041;1276;25612;-67
2023/01/13 07:55:59;;;;;;;19.80;7.80;;;;;;;-2.45;100.00;99288.39;106293;1276;1003361;-67
2023/01/13 07:58:27;;;;;;;19.20;7.70;;;;;;;-2.39;100.00;99281.67;107088;1254;22552;-76
2023/01/13 08:00:54;;;;;;;20.10;7.20;;;;;;;-2.32;100.00;99276.19;107749;1276;22539;-75
2023/01/13 08:03:22;;;;;;;15.70;6.50;;;;;;;-2.24;100.00;99277.05;108501;1276;22571;-77
2023/01/13 08:05:52;;;;;;;10.20;4.60;;;;;;;-2.18;100.00;99264.45;108544;1275;22603;-75
2023/01/13 08:08:20;;;;;;;9.80;5.00;;;;;;;-2.15;100.00;99263.89;108349;1275;22760;-78
2023/01/13 08:10:47;;;;;;;10.30;4.50;;;;;;;-2.15;100.00;99255.06;107274;1275;1002532;-76
2023/01/13 08:13:18;;;;;;;28.20;8.10;;;;;;;-2.14;100.00;99250.74;108343;1275;22558;-77
2023/01/13 08:15:52;;;;;;;22.20;9.00;;;;;;;-2.12;100.00;99247.77;108302;1275;25271;-77
2023/01/13 08:18:21;;;;;;;;;;;;;;;-2.10;100.00;99244.63;108327;1275;22642;-75
2023/01/13 08:20:48;;;;;;;17.40;6.10;;;;;;;-2.07;100.00;99245.17;108088;1275;22786;-78
2023/01/13 08:23:16;;;;;;;18.00;6.70;;;;;;;-2.06;100.00;99238.16;108221;1275;22641;-77
2023/01/13 08:25:43;;;;;;;12.70;6.00;;;;;;;-2.03;100.00;99236.89;108326;1275;22739;-79
2023/01/13 08:28:12;;;;;;;16.60;7.30;;;;;;;-1.96;100.00;99227.05;107199;1267;1002594;-76
2023/01/13 08:30:40;;;;;;;15.30;6.80;;;;;;;-1.89;100.00;99221.95;107131;1275;1003611;-75
2023/01/13 08:33:09;;;;;;;14.10;6.10;;;;;;;-1.81;100.00;99220.49;107925;1275;22647;-75
2023/01/13 08:35:40;;;;;;;26.30;8.80;;;;;;;-1.75;100.00;99215.08;107137;1275;1015847;-78
2023/01/13 08:38:07;;;;;;;22.50;10.40;;;;;;;-1.69;100.00;99206.48;107184;1277;1003144;-76
2023/01/13 08:40:35;;;;;;;19.70;8.10;;;;;;;-1.63;100.00;99200.61;107814;1277;22606;-77
2023/01/13 08:43:03;;;;;;;16.40;6.80;;;;;;;-1.61;100.00;99202.69;107276;1277;1002860;-77
2023/01/13 08:45:31;;;;;;;17.30;6.10;;;;;;;-1.57;100.00;99201.56;107914;1277;22561;-76
2023/01/13 08:48:00;;;;;;;16.00;6.40;;;;;;;-1.55;100.00;99195.38;107782;1277;24220;-73
2023/01/13 08:50:29;;;;;;;18.50;6.20;;;;;;;-1.53;100.00;99195.05;106848;1277;25458;-69
2023/01/13 08:52:57;;;;;;;12.90;5.20;;;;;;;-1.50;100.00;99190.06;106832;1270;22651;-69
2023/01/13 08:55:24;;;;;;;10.30;4.90;;;;;;;-1.48;100.00;99192.97;107029;1272;22532;-68
2023/01/13 08:57:51;;;;;;;20.30;5.90;;;;;;;-1.46;100.00;99183.25;108010;1272;22538;-76
2023/01/13 09:00:22;;;;;;;12.00;5.60;;;;;;;-1.42;100.00;99184.33;108089;1270;24171;-75
2023/01/13 09:02:49;;;;;;;11.40;5.40;;;;;;;-1.36;100.00;99180.38;108228;1276;22552;-69
2023/01/13 09:05:17;;;;;;;10.80;5.30;;;;;;;-1.30;100.00;99180.08;106868;1277;1002756;-71
2023/01/13 09:07:48;;;;;;;41.90;14.70;;;;;;;-1.25;100.00;99174.18;107063;1277;24324;-74
2023/01/13 09:10:15;;;;;;;13.50;5.20;;;;;;;-1.21;100.00;99176.89;107850;1272;24353;-75
2023/01/13 09:15:28;;;;;;;13.00;5.20;;;;;;;-1.12;100.00;99164.90;107348;1276;22530;-70
2023/01/13 09:18:00;;;;;;;13.10;5.30;;;;;;;-1.09;100.00;99171.08;108032;1272;22547;-77
2023/01/13 09:20:33;;;;;;;14.10;5.40;;;;;;;-1.04;100.00;99161.80;109242;1268;22570;-77
2023/01/13 09:23:13;;;;;;;10.90;4.50;;;;;;;-0.97;100.00;99160.61;108876;1275;22574;-75
2023/01/13 09:25:40;;;;;;;11.90;5.10;;;;;;;-0.92;100.00;99162.70;107301;1275;1003195;-76
2023/01/13 09:28:07;;;;;;;12.30;5.30;;;;;;;-0.88;100.00;99163.38;107371;1271;22530;-69
2023/01/13 09:30:36;;;;;;;12.60;6.20;;;;;;;-0.84;100.00;99161.31;107190;1274;1003797;-75
2023/01/13 09:35:49;;;;;;;13.10;5.40;;;;;;;-0.79;100.00;99158.33;107007;1271;1003423;-75
2023/01/13 09:38:17;;;;;;;12.60;4.90;;;;;;;-0.79;100.00;99166.62;108488;1272;24330;-75
2023/01/13 09:40:44;;;;;;;14.90;6.10;;;;;;;-0.79;100.00;99175.80;107530;1272;1002570;-78
2023/01/13 09:46:46;;;;;;;20.50;8.10;;;;;;;-0.72;100.00;99179.89;108013;1275;25303;-76
2023/01/13 09:49:21;;;;;;;42.90;13.50;;;;;;;-0.69;100.00;99186.18;107382;1276;1002840;-78
2023/01/13 09:52:19;;;;;;;20.30;8.40;;;;;;;-0.65;100.00;99200.37;108094;1276;22830;-76
2023/01/13 09:55:01;;;;;;;21.60;7.70;;;;;;;-0.59;100.00;99203.82;107111;1276;1003402;-76
2023/01/13 09:57:29;;;;;;;18.90;6.80;;;;;;;-0.56;100.00;99210.87;108192;1276;22746;-76
2023/01/13 09:59:57;;;;;;;13.40;5.40;;;;;;;-0.53;100.00;99226.35;107876;1276;22576;-79
2023/01/13 10:02:56;;;;;;;17.80;7.20;;;;;;;-0.46;100.00;99229.73;108189;1276;22539;-77
2023/01/13 10:05:40;;;;;;;16.80;6.60;;;;;;;-0.38;100.00;99239.36;108225;1276;22534;-78
2023/01/13 10:08:12;;;;;;;17.40;5.20;;;;;;;-0.30;100.00;99247.77;108539;1276;1002250;-75
2023/01/13 10:10:52;;;;;;;16.70;5.20;;;;;;;-0.24;100.00;99254.88;108950;1276;1002359;-75
2023/01/13 10:13:24;;;;;;;11.40;5.80;;;;;;;-0.16;100.00;99258.70;108145;1276;22574;-77
2023/01/13 10:15:51;;;;;;;20.00;6.80;;;;;;;-0.10;100.00;99265.31;107342;1276;1003204;-76
2023/01/13 10:19:09;;;;;;;16.20;6.80;;;;;;;-0.04;100.00;99275.83;108060;1276;22529;-78
2023/01/13 10:37:57;;;;;;;24.30;6.70;;;;;;;0.24;100.00;99262.02;104691;1295;557725;-75
2023/01/13 10:40:24;;;;;;;;;;;;;;;0.29;100.00;99286.50;105840;1288;184144;-76
2023/01/13 10:43:05;;;;;;;15.80;5.70;;;;;;;0.25;100.00;99326.50;106037;1288;25320;-79
2023/01/13 10:45:54;;;;;;;11.50;4.80;;;;;;;0.21;100.00;99350.26;105427;1267;1002677;-81
2023/01/13 10:48:22;;;;;;;14.40;5.80;;;;;;;0.15;100.00;99372.52;105281;1288;1005135;-77
2023/01/13 10:50:49;;;;;;;17.00;6.30;;;;;;;0.10;100.00;99398.21;106106;1288;22844;-76
2023/01/13 10:53:23;;;;;;;12.40;4.40;;;;;;;0.05;100.00;99417.58;105030;1283;1003408;-75
2023/01/13 10:56:02;;;;;;;7.10;4.30;;;;;;;-0.00;100.00;99442.80;105276;1288;1003850;-77
2023/01/13 10:58:29;;;;;;;13.20;4.30;;;;;;;-0.08;100.00;99488.58;105988;1282;22549;-69
2023/01/13 11:01:01;;;;;;;12.40;4.60;;;;;;;-0.15;100.00;99509.64;105338;1288;1003541;-70
2023/01/13 11:03:40;;;;;;;17.10;5.00;;;;;;;-0.21;100.00;99529.09;106076;1288;22540;-67
2023/01/13 11:06:07;;;;;;;11.00;4.80;;;;;;;-0.31;100.00;99549.14;106113;1282;25493;-68
2023/01/13 11:08:44;;;;;;;14.50;7.00;;;;;;;-0.40;100.00;99567.45;105220;1281;1003651;-66
2023/01/13 11:11:37;;;;;;;12.60;6.00;;;;;;;-0.43;100.00;99581.70;105996;1288;23906;-69
2023/01/13 11:14:40;;;;;;;15.20;6.60;;;;;;;-0.44;100.00;99593.46;105846;1287;22551;-71
2023/01/13 11:17:31;;;;;;;19.10;6.90;;;;;;;-0.47;100.00;99602.55;105901;1283;22540;-70
2023/01/13 11:20:11;;;;;;;6.40;4.00;;;;;;;-0.54;100.00;99616.86;105900;1281;22578;-69
2023/01/13 11:22:48;;;;;;;10.80;4.30;;;;;;;-0.60;100.00;99628.75;105884;1286;22654;-67
2023/01/13 11:25:22;;;;;;;12.50;4.50;;;;;;;-0.65;100.00;99639.20;105196;1284;1002869;-68
2023/01/13 11:28:02;;;;;;;9.70;4.10;;;;;;;-0.67;100.00;99651.61;105995;1282;24288;-73
2023/01/13 11:30:40;;;;;;;11.80;4.50;;;;;;;-0.68;100.00;99667.98;105951;1289;24000;-75
2023/01/13 11:33:13;;;;;;;8.30;4.10;;;;;;;-0.67;100.00;99672.67;105996;1285;22540;-73
2023/01/13 11:35:47;;;;;;;15.20;5.20;;;;;;;-0.66;100.00;99678.77;105281;1282;1002863;-73
2023/01/13 11:38:18;;;;;;;15.60;6.80;;;;;;;-0.64;100.00;99683.38;105274;1285;1002990;-76
2023/01/13 11:40:46;;;;;;;12.90;5.40;;;;;;;-0.61;100.00;99690.80;105946;1283;25625;-69
2023/01/13 11:43:28;;;;;;;13.70;4.40;;;;;;;-0.62;100.00;99694.98;106110;1288;25323;-69
2023/01/13 11:45:57;;;;;;;10.90;3.90;;;;;;;-0.64;100.00;99700.08;105958;1288;22557;-75
2023/01/13 11:48:27;;;;;;;7.50;3.70;;;;;;;-0.64;100.00;99715.10;105976;1288;22545;-76
2023/01/13 11:50:57;;;;;;;19.60;5.00;;;;;;;-0.66;100.00;99723.92;105195;1288;1002870;-79
2023/01/13 11:53:37;;;;;;;12.40;5.00;;;;;;;-0.68;100.00;99732.52;105146;1285;1003128;-80
2023/01/13 11:56:08;;;;;;;13.40;5.70;;;;;;;-0.67;100.00;99733.72;105956;1282;22680;-78
2023/01/13 11:59:00;;;;;;;12.60;5.60;;;;;;;-0.67;100.00;99738.38;106076;1288;22681;-75
2023/01/13 12:01:46;;;;;;;17.50;5.50;;;;;;;-0.69;100.00;99741.48;105955;1288;25374;-76
2023/01/13 12:04:36;;;;;;;11.10;5.30;;;;;;;-0.73;100.00;99745.64;105262;1282;1004000;-75
2023/01/13 12:07:45;;;;;;;35.00;11.10;;;;;;;-0.75;100.00;99749.86;105084;1288;1003809;-75
2023/01/13 12:10:38;;;;;;;14.90;5.50;;;;;;;-0.75;100.00;99755.17;104843;1288;1002952;-75
2023/01/13 12:13:06;;;;;;;13.80;5.10;;;;;;;-0.74;100.00;99756.51;105732;1288;24349;-77
2023/01/13 12:15:35;;;;;;;13.20;4.90;;;;;;;-0.71;100.00;99762.70;105276;1282;1002914;-78